Time;durP1;ratioP1;P1;durP2;ratioP2;P2;SDS_P1;SDS_P2;PMS_P1;PMS_P2;Temp;Humidity;BMP_temperature;BMP_pressure;BME280_temperature;BME280_humidity;BME280_pressure;Samples;Min_cycle;Max_cycle;Signal;HPM_P1;HPM_P2
2021/09/25 00:01:54;;;;;;;5.10;4.40;;;16.60;96.80;;;;;;6234019;28;20475;-63
2021/09/25 00:04:58;;;;;;;4.97;4.53;;;16.60;96.90;;;;;;6234605;28;20443;-61
2021/09/25 00:08:01;;;;;;;4.67;4.30;;;16.50;96.90;;;;;;6244780;28;20985;-62
2021/09/25 00:11:05;;;;;;;4.50;4.10;;;16.40;97.00;;;;;;6258598;28;20473;-62
2021/09/25 00:14:09;;;;;;;5.37;4.90;;;16.40;97.20;;;;;;6249109;28;20450;-62
2021/09/25 00:17:14;;;;;;;4.00;3.30;;;16.40;97.30;;;;;;6258795;28;20489;-62
2021/09/25 00:20:19;;;;;;;8.63;4.67;;;16.30;97.50;;;;;;6258493;28;20470;-65
2021/09/25 00:23:22;;;;;;;5.70;4.40;;;16.30;97.50;;;;;;6258846;28;20536;-62
2021/09/25 00:26:27;;;;;;;5.03;4.53;;;16.20;97.90;;;;;;6259602;28;20471;-61
2021/09/25 00:29:32;;;;;;;5.77;4.83;;;16.20;98.00;;;;;;6258827;28;20478;-61
2021/09/25 00:32:35;;;;;;;4.63;4.20;;;16.10;98.10;;;;;;6258582;28;21005;-61
2021/09/25 00:35:38;;;;;;;4.90;4.50;;;16.00;98.40;;;;;;6229158;28;20467;-61
2021/09/25 00:38:41;;;;;;;5.80;4.60;;;15.80;98.90;;;;;;6229615;28;20823;-62
2021/09/25 00:41:44;;;;;;;5.03;4.40;;;15.80;99.00;;;;;;6229171;28;20472;-62
2021/09/25 00:44:49;;;;;;;5.70;4.60;;;15.80;99.10;;;;;;6229482;28;20501;-61
2021/09/25 00:47:52;;;;;;;7.97;4.93;;;15.70;99.30;;;;;;6229134;28;20948;-62
2021/09/25 00:50:55;;;;;;;4.40;4.00;;;15.80;99.30;;;;;;6229027;28;20967;-61
2021/09/25 00:53:59;;;;;;;5.37;4.90;;;15.70;99.40;;;;;;6228874;28;20472;-61
2021/09/25 00:57:02;;;;;;;4.67;4.27;;;15.70;99.40;;;;;;6229133;28;20472;-62
2021/09/25 01:00:08;;;;;;;4.50;4.10;;;15.70;99.40;;;;;;6219558;28;20479;-63
2021/09/25 01:03:11;;;;;;;5.43;4.00;;;15.70;99.40;;;;;;6204385;28;20469;-62
2021/09/25 01:06:15;;;;;;;4.73;4.40;;;15.70;99.40;;;;;;6203443;28;20579;-62
2021/09/25 01:09:18;;;;;;;4.43;4.03;;;15.70;99.40;;;;;;6233541;28;20800;-61
2021/09/25 01:12:21;;;;;;;5.03;4.47;;;15.70;99.40;;;;;;6228423;28;20502;-64
2021/09/25 01:15:26;;;;;;;5.50;4.23;;;15.60;99.40;;;;;;6228810;28;20472;-63
2021/09/25 01:18:29;;;;;;;4.43;4.03;;;15.60;99.60;;;;;;6218446;28;20800;-63
2021/09/25 01:21:34;;;;;;;4.73;3.80;;;15.60;99.70;;;;;;6227354;28;20486;-62
2021/09/25 01:24:38;;;;;;;4.90;4.43;;;15.60;99.80;;;;;;6228086;28;20472;-64
2021/09/25 01:27:42;;;;;;;5.77;4.37;;;15.50;99.90;;;;;;6227476;28;20983;-62
2021/09/25 01:30:45;;;;;;;5.83;4.70;;;15.50;99.90;;;;;;6227160;28;20959;-60
2021/09/25 01:33:52;;;;;;;4.43;3.93;;;15.40;99.90;;;;;;6226306;28;20468;-61
2021/09/25 01:36:56;;;;;;;5.43;4.03;;;15.40;99.90;;;;;;6226180;28;20545;-60
2021/09/25 01:39:59;;;;;;;4.50;3.97;;;15.40;99.90;;;;;;6226186;28;20482;-62
2021/09/25 01:43:03;;;;;;;5.53;5.03;;;15.40;99.90;;;;;;6225576;28;20798;-62
2021/09/25 01:46:06;;;;;;;5.00;4.60;;;15.40;99.90;;;;;;6225737;28;20793;-62
2021/09/25 01:49:09;;;;;;;5.70;4.10;;;15.30;99.90;;;;;;6226966;28;20468;-61
2021/09/25 01:52:14;;;;;;;7.80;5.43;;;15.40;99.90;;;;;;6227236;28;20564;-62
2021/09/25 01:55:17;;;;;;;6.90;4.80;;;15.40;99.90;;;;;;6226920;28;20482;-61
2021/09/25 01:58:21;;;;;;;6.60;5.90;;;15.40;99.90;;;;;;6227094;28;20472;-61
2021/09/25 02:01:24;;;;;;;11.37;10.03;;;15.40;99.90;;;;;;6227104;28;20491;-61
2021/09/25 02:04:27;;;;;;;11.70;10.20;;;15.40;99.90;;;;;;6226715;28;20555;-61
2021/09/25 02:07:32;;;;;;;11.60;9.93;;;15.30;99.90;;;;;;6226963;28;20971;-62
2021/09/25 02:10:35;;;;;;;10.40;9.40;;;15.30;99.90;;;;;;6226599;28;20476;-61
2021/09/25 02:13:39;;;;;;;9.67;8.87;;;15.30;99.90;;;;;;6226402;28;20472;-61
2021/09/25 02:16:42;;;;;;;9.37;8.33;;;15.30;99.90;;;;;;6226327;28;20476;-61
2021/09/25 02:19:45;;;;;;;7.50;6.80;;;15.30;99.90;;;;;;6226724;28;20515;-61
2021/09/25 02:22:50;;;;;;;6.77;6.00;;;15.20;99.90;;;;;;6222317;28;20476;-63
2021/09/25 02:25:53;;;;;;;6.00;5.50;;;15.20;99.90;;;;;;6226291;28;20483;-63
2021/09/25 02:28:56;;;;;;;6.20;5.60;;;15.20;99.90;;;;;;6226408;28;20455;-62
2021/09/25 02:31:59;;;;;;;5.47;4.97;;;15.20;99.90;;;;;;6225792;28;20798;-61
2021/09/25 02:35:03;;;;;;;5.23;4.73;;;15.20;99.90;;;;;;6226281;28;20764;-61
2021/09/25 02:38:07;;;;;;;5.33;4.83;;;15.20;99.90;;;;;;6226104;28;20495;-62
2021/09/25 02:41:10;;;;;;;6.53;4.60;;;15.10;99.90;;;;;;6226115;28;20494;-62
2021/09/25 02:44:14;;;;;;;4.67;4.27;;;15.10;99.90;;;;;;6226270;28;21410;-62
2021/09/25 02:47:17;;;;;;;4.50;4.10;;;15.00;99.90;;;;;;6226353;28;20456;-62
2021/09/25 02:50:21;;;;;;;5.70;4.73;;;15.10;99.90;;;;;;6225816;28;20490;-62
2021/09/25 02:53:25;;;;;;;4.80;4.40;;;15.00;99.90;;;;;;6225566;28;20480;-62
2021/09/25 02:56:28;;;;;;;7.50;4.97;;;15.00;99.90;;;;;;6225598;28;20480;-62
2021/09/25 02:59:31;;;;;;;5.93;4.53;;;15.00;99.90;;;;;;6225958;28;20482;-61
2021/09/25 03:02:35;;;;;;;5.00;4.53;;;14.90;99.90;;;;;;6225912;28;20487;-63
2021/09/25 03:05:38;;;;;;;5.00;4.60;;;14.90;99.90;;;;;;6225850;28;20506;-62
2021/09/25 03:08:42;;;;;;;5.00;4.60;;;14.90;99.90;;;;;;6225851;28;20471;-62
2021/09/25 03:11:46;;;;;;;4.97;4.47;;;14.90;99.90;;;;;;6225508;28;21039;-62
2021/09/25 03:14:49;;;;;;;5.40;4.53;;;14.80;99.90;;;;;;6225613;28;20467;-62
2021/09/25 03:17:52;;;;;;;6.00;5.13;;;14.80;99.90;;;;;;6226126;28;20475;-61
2021/09/25 03:20:55;;;;;;;6.23;5.27;;;14.70;99.90;;;;;;6225485;28;20491;-62
2021/09/25 03:24:00;;;;;;;5.50;5.00;;;14.70;99.90;;;;;;6225277;28;20479;-63
2021/09/25 03:27:03;;;;;;;4.33;3.93;;;14.60;99.90;;;;;;6216267;28;20936;-61
2021/09/25 03:30:09;;;;;;;5.53;5.03;;;14.60;99.90;;;;;;6225672;28;20483;-62
2021/09/25 03:33:12;;;;;;;5.93;5.03;;;14.60;99.90;;;;;;6225589;28;20476;-62
2021/09/25 03:36:15;;;;;;;5.20;4.73;;;14.50;99.90;;;;;;6225137;28;20803;-62
2021/09/25 03:39:19;;;;;;;5.50;4.53;;;14.50;99.90;;;;;;6225439;28;20794;-62
2021/09/25 03:42:23;;;;;;;5.90;5.10;;;14.50;99.90;;;;;;6224651;28;20478;-62
2021/09/25 03:45:26;;;;;;;5.90;5.40;;;14.40;99.90;;;;;;6225154;28;20541;-62
2021/09/25 03:48:29;;;;;;;6.60;4.63;;;14.30;99.90;;;;;;6225617;28;20463;-62
2021/09/25 03:51:32;;;;;;;5.00;4.60;;;14.20;99.90;;;;;;6225283;28;20490;-62
2021/09/25 03:54:37;;;;;;;5.67;5.00;;;14.20;99.90;;;;;;6225479;28;20475;-62
2021/09/25 03:57:40;;;;;;;6.30;5.70;;;14.20;99.90;;;;;;6225156;28;20487;-62
2021/09/25 04:00:43;;;;;;;4.93;4.60;;;14.20;99.90;;;;;;6225200;28;20475;-62
2021/09/25 04:03:46;;;;;;;7.43;5.50;;;14.20;99.90;;;;;;6225309;28;20472;-61
2021/09/25 04:06:50;;;;;;;4.57;4.17;;;14.20;99.90;;;;;;6224828;28;20468;-61
2021/09/25 04:09:54;;;;;;;5.20;4.80;;;14.20;99.90;;;;;;6227872;28;20533;-61
2021/09/25 04:12:57;;;;;;;6.23;5.63;;;14.20;99.90;;;;;;6229962;28;20472;-61
2021/09/25 04:16:01;;;;;;;5.53;4.97;;;14.20;99.90;;;;;;6229596;28;20483;-61
2021/09/25 04:19:04;;;;;;;6.47;5.33;;;14.20;99.90;;;;;;6229630;28;20818;-61
2021/09/25 04:22:07;;;;;;;5.73;5.23;;;14.20;99.90;;;;;;6229557;28;20480;-61
2021/09/25 04:25:11;;;;;;;6.43;5.30;;;14.20;99.90;;;;;;6229166;28;20486;-61
2021/09/25 04:28:14;;;;;;;5.53;5.03;;;14.10;99.90;;;;;;6229435;28;20483;-61
2021/09/25 04:31:18;;;;;;;5.23;4.70;;;14.10;99.90;;;;;;6224295;28;20483;-62
2021/09/25 04:34:21;;;;;;;5.20;4.80;;;14.10;99.90;;;;;;6229017;28;20804;-62
2021/09/25 04:37:24;;;;;;;5.53;5.03;;;14.10;99.90;;;;;;6229160;28;20490;-61
2021/09/25 04:40:30;;;;;;;5.67;5.17;;;14.00;99.90;;;;;;6228977;28;20491;-61
2021/09/25 04:43:33;;;;;;;5.70;5.20;;;14.00;99.90;;;;;;6229449;28;20821;-61
2021/09/25 04:46:36;;;;;;;6.23;5.73;;;14.00;99.90;;;;;;6228913;28;20541;-61
2021/09/25 04:49:39;;;;;;;6.67;5.90;;;14.00;99.90;;;;;;6229076;28;20486;-61
2021/09/25 04:52:42;;;;;;;10.30;9.27;;;14.00;99.90;;;;;;6228990;28;20483;-61
2021/09/25 04:55:47;;;;;;;12.90;11.60;;;14.00;99.90;;;;;;6229360;28;20480;-61
2021/09/25 04:58:50;;;;;;;10.80;9.70;;;14.00;99.90;;;;;;6228528;28;20483;-61
2021/09/25 05:01:53;;;;;;;10.27;9.27;;;13.90;99.90;;;;;;6228428;28;20475;-62
2021/09/25 05:04:56;;;;;;;10.87;8.20;;;13.90;99.90;;;;;;6227850;28;20460;-62
2021/09/25 05:07:59;;;;;;;6.60;6.00;;;14.00;99.90;;;;;;6228158;28;20778;-62
2021/09/25 05:11:04;;;;;;;9.43;5.37;;;13.90;99.90;;;;;;6228473;28;20475;-62
2021/09/25 05:14:07;;;;;;;6.43;5.90;;;13.90;99.90;;;;;;6228334;28;20502;-62
2021/09/25 05:17:10;;;;;;;6.30;5.20;;;14.00;99.90;;;;;;6228686;28;20447;-62
2021/09/25 05:20:14;;;;;;;6.20;5.60;;;13.90;99.90;;;;;;6227320;28;20441;-62
2021/09/25 05:23:18;;;;;;;7.13;5.43;;;14.00;99.90;;;;;;6227984;28;20468;-61
2021/09/25 05:26:22;;;;;;;5.53;5.10;;;13.90;99.90;;;;;;6228126;28;20476;-61
2021/09/25 05:29:25;;;;;;;5.60;5.07;;;13.90;99.90;;;;;;6227640;28;21019;-61
2021/09/25 05:32:29;;;;;;;5.97;5.07;;;14.00;99.90;;;;;;6228135;28;20484;-62
2021/09/25 05:35:32;;;;;;;7.73;5.90;;;14.00;99.90;;;;;;6227770;28;20487;-62
2021/09/25 05:38:35;;;;;;;6.90;5.40;;;14.10;99.90;;;;;;6227353;28;20487;-61
2021/09/25 05:41:39;;;;;;;6.20;5.60;;;14.10;99.90;;;;;;6226914;28;20480;-62
2021/09/25 05:44:45;;;;;;;7.27;6.67;;;14.10;99.90;;;;;;6228191;28;20464;-61
2021/09/25 05:47:48;;;;;;;6.30;5.70;;;14.20;99.90;;;;;;6227672;28;20475;-62
2021/09/25 05:50:51;;;;;;;5.90;5.40;;;14.20;99.90;;;;;;6227547;28;20967;-63
2021/09/25 05:53:54;;;;;;;7.90;5.80;;;14.20;99.90;;;;;;6227397;28;20464;-62
2021/09/25 05:56:59;;;;;;;6.83;6.23;;;14.10;99.90;;;;;;6227050;28;20472;-62
2021/09/25 06:00:02;;;;;;;6.53;5.93;;;14.20;99.90;;;;;;6226974;28;20479;-62
2021/09/25 06:03:05;;;;;;;6.73;6.13;;;14.30;99.90;;;;;;6227235;28;20475;-62
2021/09/25 06:06:09;;;;;;;6.90;6.20;;;14.30;99.90;;;;;;6227326;28;20471;-62
2021/09/25 06:09:12;;;;;;;7.33;6.50;;;14.30;99.90;;;;;;6227120;28;20472;-62
2021/09/25 06:12:17;;;;;;;6.00;5.50;;;14.40;99.90;;;;;;6226335;28;20487;-62
2021/09/25 06:15:20;;;;;;;5.93;5.30;;;14.40;99.90;;;;;;6226678;28;20498;-62
2021/09/25 06:18:23;;;;;;;6.50;5.90;;;14.50;99.90;;;;;;6226751;28;20557;-63
2021/09/25 06:21:26;;;;;;;7.10;6.40;;;14.60;99.90;;;;;;6226839;28;20472;-63
2021/09/25 06:24:29;;;;;;;6.73;5.80;;;14.60;99.90;;;;;;6226518;28;20478;-63
2021/09/25 06:27:34;;;;;;;6.17;5.47;;;14.70;99.90;;;;;;6226436;28;20575;-61
2021/09/25 06:30:40;;;;;;;6.00;5.50;;;14.80;99.90;;;;;;6226584;28;20476;-62
2021/09/25 06:33:44;;;;;;;6.67;5.20;;;14.90;99.90;;;;;;6225643;28;20479;-63
2021/09/25 06:36:47;;;;;;;8.67;6.93;;;15.00;99.90;;;;;;6226499;28;20793;-63
2021/09/25 06:39:51;;;;;;;8.30;6.10;;;15.00;99.90;;;;;;6216988;28;20771;-62
2021/09/25 06:42:56;;;;;;;6.07;5.50;;;15.20;99.90;;;;;;6225860;28;20479;-62
2021/09/25 06:45:59;;;;;;;7.47;6.67;;;15.40;99.90;;;;;;6225974;28;20483;-62
2021/09/25 06:49:03;;;;;;;8.23;5.77;;;15.70;99.90;;;;;;6225749;28;20467;-62
2021/09/25 06:52:06;;;;;;;7.83;6.20;;;15.90;99.90;;;;;;6225865;28;20480;-62
2021/09/25 06:55:10;;;;;;;8.13;6.60;;;16.60;99.90;;;;;;6225744;28;20971;-64
2021/09/25 06:58:15;;;;;;;10.33;8.77;;;18.70;99.90;;;;;;6225984;28;20486;-63
2021/09/25 07:01:18;;;;;;;10.00;5.70;;;21.60;96.40;;;;;;6225545;28;20484;-63
2021/09/25 07:04:22;;;;;;;10.60;8.37;;;23.60;90.00;;;;;;6225772;28;20245;-63
2021/09/25 07:07:25;;;;;;;8.60;7.77;;;25.20;78.80;;;;;;6226090;28;20291;-62
2021/09/25 07:10:28;;;;;;;7.90;6.83;;;26.80;70.20;;;;;;6225388;28;20236;-63
2021/09/25 07:13:33;;;;;;;8.07;6.67;;;28.50;60.90;;;;;;6225199;28;20235;-63
2021/09/25 07:16:36;;;;;;;8.67;6.57;;;29.60;55.60;;;;;;6225214;28;20247;-63
2021/09/25 07:19:40;;;;;;;8.50;6.60;;;30.70;51.30;;;;;;6225709;28;20231;-63
2021/09/25 07:22:45;;;;;;;8.23;6.23;;;32.10;48.90;;;;;;6225285;28;20232;-63
2021/09/25 07:25:48;;;;;;;8.30;6.10;;;33.40;44.70;;;;;;6225949;28;20228;-64
2021/09/25 07:28:53;;;;;;;8.05;6.97;;;34.20;42.20;;;;;;6225474;28;20561;-63
2021/09/25 07:31:56;;;;;;;6.88;6.20;;;35.00;39.70;;;;;;6225392;28;20293;-63
2021/09/25 07:34:59;;;;;;;6.65;6.05;;;35.80;38.10;;;;;;6225437;28;20231;-65
2021/09/25 07:38:03;;;;;;;6.53;5.93;;;36.60;36.90;;;;;;6225934;28;20219;-64
2021/09/25 07:41:06;;;;;;;6.95;6.35;;;37.40;35.20;;;;;;6219984;28;20244;-64
2021/09/25 07:44:11;;;;;;;6.15;5.65;;;37.90;34.00;;;;;;6227214;28;20211;-63
2021/09/25 07:47:16;;;;;;;7.35;6.30;;;38.30;32.80;;;;;;6229738;28;20208;-62
2021/09/25 07:50:19;;;;;;;6.55;5.95;;;35.80;34.50;;;;;;6230192;28;20231;-63
2021/09/25 07:53:22;;;;;;;7.35;6.35;;;35.90;35.70;;;;;;6230550;28;20231;-63
2021/09/25 07:56:25;;;;;;;8.23;7.43;;;37.70;34.10;;;;;;6230055;28;20258;-63
2021/09/25 07:59:31;;;;;;;6.72;6.05;;;38.60;32.20;;;;;;6230248;28;20236;-63
2021/09/25 08:02:34;;;;;;;7.60;6.90;;;39.70;31.20;;;;;;6229147;28;20232;-63
2021/09/25 08:05:38;;;;;;;6.95;6.40;;;40.70;29.90;;;;;;6229634;28;20314;-63
2021/09/25 08:08:41;;;;;;;7.63;6.90;;;40.80;29.10;;;;;;6228041;28;20231;-63
2021/09/25 08:11:44;;;;;;;6.32;5.93;;;41.70;28.60;;;;;;6228500;28;20610;-63
2021/09/25 08:14:49;;;;;;;7.15;6.55;;;42.40;27.60;;;;;;6229470;28;20676;-63
2021/09/25 08:17:52;;;;;;;6.68;5.97;;;42.70;27.20;;;;;;6229576;28;20680;-63
2021/09/25 08:20:55;;;;;;;6.95;6.45;;;43.80;26.50;;;;;;6229382;28;20238;-64
2021/09/25 08:23:59;;;;;;;8.00;6.90;;;44.60;25.70;;;;;;6228148;28;20255;-64
2021/09/25 08:27:03;;;;;;;6.68;6.18;;;43.60;26.20;;;;;;6226858;28;20359;-64
2021/09/25 08:30:09;;;;;;;6.45;5.95;;;44.60;25.40;;;;;;6227691;28;20228;-64
2021/09/25 08:33:12;;;;;;;7.03;6.43;;;45.40;25.10;;;;;;6228016;28;20236;-64
2021/09/25 08:36:16;;;;;;;6.68;6.22;;;46.30;24.10;;;;;;6227054;28;20224;-64
2021/09/25 08:39:39;;;;;;;7.28;6.68;;;46.90;23.50;;;;;;6227670;28;20608;-64
2021/09/25 08:42:42;;;;;;;6.25;5.85;;;47.20;23.50;;;;;;6192697;28;20228;-66
2021/09/25 08:45:52;;;;;;;6.18;5.57;;;46.70;23.10;;;;;;6214340;28;20552;-65
2021/09/25 08:48:56;;;;;;;6.22;5.82;;;47.60;22.80;;;;;;6211534;28;20659;-66
2021/09/25 08:52:01;;;;;;;5.28;4.97;;;48.50;22.20;;;;;;6210692;28;20225;-64
2021/09/25 08:55:06;;;;;;;6.03;5.63;;;48.90;22.10;;;;;;6227440;28;20311;-64
2021/09/25 08:58:11;;;;;;;5.55;5.15;;;48.20;21.90;;;;;;6228304;28;20234;-65
2021/09/25 09:01:20;;;;;;;5.30;4.97;;;48.90;21.40;;;;;;6215467;28;20228;-65
2021/09/25 09:04:23;;;;;;;5.45;5.05;;;49.50;21.00;;;;;;6203576;28;20240;-66
2021/09/25 09:07:29;;;;;;;5.85;5.45;;;50.10;20.60;;;;;;6200892;28;20228;-67
2021/09/25 09:10:34;;;;;;;6.72;6.22;;;50.60;20.20;;;;;;6203387;28;20236;-64
2021/09/25 09:13:38;;;;;;;6.28;5.45;;;45.00;22.90;;;;;;6203651;28;20240;-63
2021/09/25 09:16:54;;;;;;;6.70;6.20;;;44.80;24.00;;;;;;6203028;28;20584;-64
2021/09/25 09:19:59;;;;;;;6.13;5.72;;;46.40;23.10;;;;;;6179702;28;20276;-65
2021/09/25 09:23:16;;;;;;;6.25;5.68;;;47.20;22.40;;;;;;6183385;28;20661;-64
2021/09/25 09:26:21;;;;;;;6.10;5.70;;;48.60;21.60;;;;;;6203158;28;20285;-63
2021/09/25 09:29:32;;;;;;;6.50;5.90;;;49.80;20.90;;;;;;6203057;28;20224;-64
2021/09/25 09:32:40;;;;;;;6.07;5.57;;;50.80;20.20;;;;;;6203339;28;20563;-65
2021/09/25 09:35:43;;;;;;;6.35;5.70;;;51.40;19.60;;;;;;6203164;28;20693;-65
2021/09/25 09:38:52;;;;;;;6.20;5.65;;;51.10;19.70;;;;;;6203062;28;20234;-65
2021/09/25 09:41:58;;;;;;;5.15;4.85;;;51.60;19.50;;;;;;6202479;28;20261;-64
2021/09/25 09:45:01;;;;;;;7.10;6.43;;;52.70;19.10;;;;;;6201810;28;20247;-63
2021/09/25 09:48:09;;;;;;;5.72;5.38;;;53.00;18.50;;;;;;6201283;28;20585;-64
2021/09/25 09:51:13;;;;;;;5.38;5.07;;;53.40;18.40;;;;;;6197438;28;20236;-63
2021/09/25 09:54:22;;;;;;;5.50;5.10;;;52.70;18.60;;;;;;6202711;28;20594;-64
2021/09/25 09:57:25;;;;;;;6.05;5.47;;;53.10;18.60;;;;;;6201781;28;20551;-64
2021/09/25 10:00:28;;;;;;;5.78;5.47;;;51.80;19.30;;;;;;6202299;28;20248;-64
2021/09/25 10:03:33;;;;;;;6.22;5.82;;;52.60;18.80;;;;;;6202676;28;20271;-64
2021/09/25 10:06:38;;;;;;;6.03;5.63;;;53.50;18.50;;;;;;6200855;28;20596;-65
2021/09/25 10:09:42;;;;;;;6.18;5.30;;;54.20;18.00;;;;;;6200942;28;20236;-65
2021/09/25 10:12:47;;;;;;;6.50;5.88;;;54.20;18.10;;;;;;6201173;28;20225;-65
2021/09/25 10:15:50;;;;;;;5.60;5.30;;;54.50;17.70;;;;;;6201637;28;20224;-64
2021/09/25 10:18:56;;;;;;;6.30;5.88;;;53.70;17.70;;;;;;6200849;28;20236;-64
2021/09/25 10:22:04;;;;;;;5.97;5.47;;;53.90;17.80;;;;;;6202312;28;20252;-65
2021/09/25 10:25:12;;;;;;;5.43;5.03;;;54.40;17.80;;;;;;6201535;28;20696;-66
2021/09/25 10:28:25;;;;;;;6.43;6.00;;;54.30;17.70;;;;;;6202501;28;20247;-66
2021/09/25 10:31:29;;;;;;;6.13;5.63;;;53.70;17.70;;;;;;6202296;28;20248;-66
2021/09/25 10:34:34;;;;;;;6.30;5.80;;;52.90;18.00;;;;;;6201466;28;20291;-66
2021/09/25 10:37:39;;;;;;;6.65;6.15;;;52.00;18.50;;;;;;6199983;28;20336;-66
2021/09/25 10:41:16;;;;;;;5.45;5.13;;;49.90;19.50;;;;;;6199322;28;20243;-65
2021/09/25 10:44:27;;;;;;;5.65;5.35;;;50.90;19.30;;;;;;6201502;28;20242;-65
2021/09/25 10:47:34;;;;;;;5.57;5.07;;;51.40;19.00;;;;;;6201655;28;20240;-65
2021/09/25 10:50:41;;;;;;;5.40;4.90;;;52.50;18.40;;;;;;6201360;28;20236;-63
2021/09/25 10:53:47;;;;;;;5.57;5.28;;;52.80;18.10;;;;;;6188301;28;20247;-63
2021/09/25 10:56:50;;;;;;;6.53;5.63;;;52.10;18.00;;;;;;6200550;28;20231;-64
2021/09/25 11:00:20;;;;;;;5.35;4.85;;;51.60;18.70;;;;;;6199424;28;20253;-63
2021/09/25 11:03:51;;;;;;;7.20;5.28;;;50.50;19.10;;;;;;6199070;28;20701;-64
2021/09/25 11:06:58;;;;;;;4.82;4.53;;;51.40;18.80;;;;;;6199273;28;20267;-64
2021/09/25 11:10:02;;;;;;;5.10;4.80;;;52.40;18.40;;;;;;6199261;28;20310;-64
2021/09/25 11:13:05;;;;;;;6.22;5.72;;;53.40;18.00;;;;;;6199785;28;20267;-64
2021/09/25 11:16:08;;;;;;;5.38;5.07;;;53.40;17.60;;;;;;6200882;28;20250;-64
2021/09/25 11:19:12;;;;;;;5.78;5.38;;;53.50;17.50;;;;;;6200700;28;20243;-64
2021/09/25 11:22:26;;;;;;;5.75;5.45;;;53.40;17.40;;;;;;6200514;28;20712;-64
2021/09/25 11:25:30;;;;;;;5.53;5.13;;;52.70;17.90;;;;;;6200478;28;20244;-64
2021/09/25 11:28:33;;;;;;;5.45;5.13;;;52.80;17.70;;;;;;6200893;28;20229;-64
2021/09/25 11:31:37;;;;;;;5.30;5.00;;;53.30;17.50;;;;;;6200907;28;20307;-64
2021/09/25 11:34:41;;;;;;;5.50;5.10;;;51.60;18.20;;;;;;6201115;28;20295;-64
2021/09/25 11:37:54;;;;;;;6.18;5.78;;;52.00;18.10;;;;;;6200413;28;20239;-64
2021/09/25 11:40:58;;;;;;;5.80;5.40;;;52.60;17.70;;;;;;6200158;28;20573;-63
2021/09/25 11:44:08;;;;;;;6.10;5.70;;;53.30;17.70;;;;;;6200865;28;20248;-63
2021/09/25 11:47:12;;;;;;;6.30;5.85;;;53.60;17.60;;;;;;6176805;28;20194;-64
2021/09/25 11:50:19;;;;;;;6.40;6.00;;;53.40;17.60;;;;;;6176968;28;20217;-64
2021/09/25 11:53:27;;;;;;;6.03;5.63;;;53.20;17.30;;;;;;6217112;28;20547;-64
2021/09/25 11:56:34;;;;;;;5.90;5.60;;;52.80;17.60;;;;;;6220128;28;20572;-63
2021/09/25 11:59:38;;;;;;;6.65;5.95;;;52.00;18.20;;;;;;6225239;28;20242;-63
2021/09/25 12:02:43;;;;;;;5.50;5.10;;;51.90;18.10;;;;;;6202428;28;20223;-64
2021/09/25 12:05:49;;;;;;;6.10;5.80;;;51.70;18.30;;;;;;6200262;28;20685;-64
2021/09/25 12:08:54;;;;;;;6.38;5.95;;;52.30;18.00;;;;;;6199948;28;20241;-65
2021/09/25 12:11:57;;;;;;;5.28;4.97;;;53.50;17.60;;;;;;6198574;28;20235;-64
2021/09/25 12:15:00;;;;;;;6.63;6.22;;;52.90;17.70;;;;;;6199071;28;20254;-65
2021/09/25 12:18:18;;;;;;;5.82;5.38;;;51.40;18.30;;;;;;6198893;28;20287;-64
2021/09/25 12:21:27;;;;;;;5.50;5.10;;;49.90;19.00;;;;;;6198679;28;20231;-65
2021/09/25 12:24:32;;;;;;;6.28;5.75;;;51.00;18.60;;;;;;6198652;28;20248;-65
2021/09/25 12:27:41;;;;;;;6.07;5.68;;;51.30;18.40;;;;;;6200008;28;20242;-65
2021/09/25 12:30:46;;;;;;;5.50;5.20;;;50.80;18.40;;;;;;6202350;28;20233;-64
2021/09/25 12:33:54;;;;;;;5.97;5.57;;;49.00;19.50;;;;;;6205017;28;20232;-66
2021/09/25 12:36:59;;;;;;;5.75;5.35;;;49.80;19.00;;;;;;6204196;28;20240;-65
2021/09/25 12:40:04;;;;;;;5.75;5.45;;;50.90;18.70;;;;;;6203504;28;20256;-65
2021/09/25 12:43:10;;;;;;;5.10;4.80;;;49.90;18.60;;;;;;6227770;28;20669;-64
2021/09/25 12:46:16;;;;;;;5.82;5.32;;;48.80;19.50;;;;;;6227365;28;20224;-64
2021/09/25 12:49:25;;;;;;;5.97;5.43;;;49.70;19.00;;;;;;6227001;28;20236;-63
2021/09/25 12:52:29;;;;;;;5.13;4.80;;;50.50;18.90;;;;;;6240159;28;20235;-64
2021/09/25 12:55:34;;;;;;;5.05;4.75;;;51.00;18.30;;;;;;6251237;28;20236;-64
2021/09/25 12:58:37;;;;;;;4.90;4.50;;;51.00;18.30;;;;;;6243938;28;20290;-63
2021/09/25 13:01:45;;;;;;;4.20;4.00;;;51.30;17.90;;;;;;6228137;28;20697;-64
2021/09/25 13:04:53;;;;;;;4.65;4.35;;;51.50;17.70;;;;;;6223614;28;20225;-64
2021/09/25 13:08:12;;;;;;;5.05;4.75;;;51.30;17.60;;;;;;6227335;28;20233;-64
2021/09/25 13:11:16;;;;;;;5.28;4.97;;;51.20;17.60;;;;;;6226747;28;20564;-66
2021/09/25 13:14:19;;;;;;;5.32;4.93;;;51.00;17.70;;;;;;6228096;28;20201;-65
2021/09/25 13:17:22;;;;;;;5.93;5.45;;;50.90;17.80;;;;;;6228070;28;20232;-64
2021/09/25 13:20:28;;;;;;;5.43;4.93;;;48.50;18.40;;;;;;6227962;28;20239;-65
2021/09/25 13:23:31;;;;;;;5.47;5.07;;;44.90;20.90;;;;;;6227044;28;20540;-65
2021/09/25 13:26:37;;;;;;;5.40;4.97;;;43.50;22.30;;;;;;6227138;28;20688;-64
2021/09/25 13:29:41;;;;;;;5.28;4.97;;;41.90;23.50;;;;;;6227582;28;20228;-64
2021/09/25 13:32:44;;;;;;;5.68;5.35;;;40.10;25.10;;;;;;6224681;28;20695;-64
2021/09/25 13:35:47;;;;;;;6.47;5.38;;;38.00;26.80;;;;;;6227105;28;20262;-63
2021/09/25 13:38:51;;;;;;;6.70;5.82;;;35.80;29.00;;;;;;6227041;28;20239;-64
2021/09/25 13:41:55;;;;;;;5.47;4.63;;;34.90;30.10;;;;;;6225857;28;20239;-64
2021/09/25 13:45:01;;;;;;;6.63;6.15;;;33.60;31.40;;;;;;6224004;28;20228;-64
2021/09/25 13:48:04;;;;;;;5.78;5.28;;;32.30;33.70;;;;;;6226438;28;20282;-64
2021/09/25 13:51:07;;;;;;;7.07;6.55;;;31.80;35.20;;;;;;6226559;28;20245;-64
2021/09/25 13:54:10;;;;;;;6.10;5.60;;;31.10;36.50;;;;;;6203455;28;20716;-63
2021/09/25 13:57:15;;;;;;;6.50;5.90;;;30.20;37.70;;;;;;6202938;28;20240;-64
2021/09/25 14:00:18;;;;;;;6.10;5.70;;;29.70;38.60;;;;;;6202997;28;20298;-62
2021/09/25 14:03:22;;;;;;;5.93;5.53;;;29.10;39.50;;;;;;6202477;28;20551;-63
2021/09/25 14:06:26;;;;;;;5.43;4.93;;;28.60;40.60;;;;;;6188556;28;20692;-63
2021/09/25 14:09:32;;;;;;;5.97;5.50;;;28.40;40.90;;;;;;6201857;28;20252;-63
2021/09/25 14:12:37;;;;;;;7.00;5.67;;;28.30;41.10;;;;;;6202092;28;20304;-63
2021/09/25 14:15:40;;;;;;;7.57;5.40;;;28.10;41.80;;;;;;6202314;28;20536;-63
2021/09/25 14:18:46;;;;;;;6.87;6.17;;;28.00;42.20;;;;;;6202443;28;20233;-63
2021/09/25 14:21:51;;;;;;;6.50;6.00;;;27.90;42.40;;;;;;6201088;28;20237;-63
2021/09/25 14:24:54;;;;;;;5.67;5.17;;;27.80;42.90;;;;;;6200526;28;20236;-63
2021/09/25 14:27:59;;;;;;;5.63;5.03;;;27.70;42.80;;;;;;6200487;28;20240;-64
2021/09/25 14:31:08;;;;;;;5.37;4.97;;;27.40;43.10;;;;;;6200395;28;20247;-63
2021/09/25 14:34:11;;;;;;;6.43;5.80;;;27.20;44.30;;;;;;6222177;28;20236;-63
2021/09/25 14:37:15;;;;;;;7.30;6.60;;;26.90;44.90;;;;;;6226115;28;20232;-63
2021/09/25 14:40:18;;;;;;;6.03;5.53;;;26.50;46.20;;;;;;6223691;28;20255;-63
2021/09/25 14:43:23;;;;;;;6.37;5.83;;;26.30;46.80;;;;;;6201702;28;20236;-64
2021/09/25 14:46:28;;;;;;;6.97;6.37;;;26.00;47.40;;;;;;6201221;28;20236;-64
2021/09/25 14:49:31;;;;;;;6.43;5.83;;;25.90;47.70;;;;;;6201863;28;20243;-65
2021/09/25 14:52:35;;;;;;;6.87;5.80;;;26.00;48.30;;;;;;6201219;28;20237;-64
2021/09/25 14:55:38;;;;;;;9.20;8.40;;;26.00;48.50;;;;;;6201045;28;20317;-64
2021/09/25 14:58:43;;;;;;;8.33;7.53;;;26.00;48.50;;;;;;6201362;28;20236;-65
2021/09/25 15:01:46;;;;;;;9.80;8.80;;;26.00;48.60;;;;;;6201082;28;20236;-64
2021/09/25 15:04:50;;;;;;;6.47;5.93;;;26.00;48.90;;;;;;6200964;28;20232;-65
2021/09/25 15:07:53;;;;;;;9.00;7.50;;;26.00;49.00;;;;;;6200944;28;20235;-64
2021/09/25 15:10:56;;;;;;;6.60;6.00;;;25.90;49.60;;;;;;6191607;28;20232;-64
2021/09/25 15:14:02;;;;;;;7.13;6.43;;;25.90;49.40;;;;;;6200905;28;20235;-64
2021/09/25 15:17:05;;;;;;;8.03;6.17;;;25.90;49.40;;;;;;6200809;28;20243;-64
2021/09/25 15:20:10;;;;;;;5.67;5.27;;;25.90;49.40;;;;;;6200939;28;20243;-64
2021/09/25 15:23:13;;;;;;;6.03;5.43;;;25.90;49.40;;;;;;6201184;28;20243;-65
2021/09/25 15:26:17;;;;;;;6.20;5.70;;;25.80;49.50;;;;;;6201530;28;20263;-65
2021/09/25 15:29:21;;;;;;;6.67;6.00;;;25.80;49.50;;;;;;6200614;28;20237;-65
2021/09/25 15:32:24;;;;;;;8.57;6.30;;;25.80;50.10;;;;;;6200786;28;20237;-64
2021/09/25 15:35:28;;;;;;;6.60;5.90;;;25.80;50.40;;;;;;6200960;28;20240;-64
2021/09/25 15:38:31;;;;;;;6.50;5.90;;;25.80;50.70;;;;;;6200591;28;20552;-65
2021/09/25 15:41:35;;;;;;;8.43;6.40;;;25.80;51.10;;;;;;6212475;28;20236;-65
2021/09/25 15:44:40;;;;;;;7.20;6.60;;;25.70;51.30;;;;;;6224771;28;20663;-64
2021/09/25 15:47:43;;;;;;;6.60;6.10;;;25.70;51.60;;;;;;6224673;28;20236;-64
2021/09/25 15:50:48;;;;;;;6.70;6.10;;;25.60;52.00;;;;;;6223559;28;20235;-63
2021/09/25 15:53:51;;;;;;;6.47;5.93;;;25.60;52.10;;;;;;6211154;28;20228;-62
2021/09/25 15:56:54;;;;;;;6.33;5.83;;;25.70;52.40;;;;;;6223722;28;20228;-62
2021/09/25 15:59:59;;;;;;;6.53;6.03;;;25.50;52.50;;;;;;6223284;28;20240;-63